createdAt,value
2023-04-18T00:04:09.877Z,102494.25
2023-04-18T00:09:12.974Z,102491.38
2023-04-18T00:14:15.730Z,102484.06
2023-04-18T00:19:19.094Z,102500.22
2023-04-18T00:24:22.479Z,102504.97
2023-04-18T00:29:25.198Z,102501.56
2023-04-18T00:34:28.879Z,102512.84
2023-04-18T00:39:31.638Z,102500.09
2023-04-18T00:44:34.399Z,102501.00
2023-04-18T00:49:37.104Z,102504.84
2023-04-18T00:54:41.494Z,102500.25
2023-04-18T00:59:44.503Z,102498.19
2023-04-18T01:04:47.424Z,102496.66
2023-04-18T01:09:50.338Z,102495.28
2023-04-18T01:14:53.115Z,102504.59
2023-04-18T01:19:56.888Z,102503.31
2023-04-18T01:24:59.768Z,102503.34
2023-04-18T01:30:02.608Z,102501.56
2023-04-18T01:35:09.221Z,102511.75
2023-04-18T01:40:12.400Z,102512.22
2023-04-18T01:45:16.828Z,102524.78
2023-04-18T01:50:19.706Z,102524.06
2023-04-18T01:55:22.757Z,102526.06
2023-04-18T02:00:25.793Z,102522.09
2023-04-18T02:05:28.594Z,102517.06
2023-04-18T02:10:31.089Z,102525.97
2023-04-18T02:15:34.493Z,102518.09
2023-04-18T02:20:37.392Z,102524.44
2023-04-18T02:25:40.213Z,102531.84
2023-04-18T02:30:42.704Z,102530.78
2023-04-18T02:35:45.511Z,102532.38
2023-04-18T02:40:48.219Z,102535.19
2023-04-18T02:45:50.877Z,102533.56
2023-04-18T02:50:54.055Z,102534.75
2023-04-18T02:55:56.916Z,102534.09
2023-04-18T03:01:08.357Z,102544.38
2023-04-18T03:06:32.083Z,102540.59
2023-04-18T03:11:37.304Z,102535.41
2023-04-18T03:16:41.392Z,102541.00
2023-04-18T03:21:47.804Z,102534.22
2023-04-18T03:26:50.978Z,102542.59
2023-04-18T03:31:57.101Z,102544.06
2023-04-18T03:37:00.261Z,102551.88
2023-04-18T03:42:06.128Z,102544.31
2023-04-18T03:47:10.182Z,102547.63
2023-04-18T03:52:16.592Z,102542.75
2023-04-18T03:57:19.603Z,102538.50
2023-04-18T04:02:22.677Z,102552.56
2023-04-18T04:07:26.306Z,102546.56
2023-04-18T04:12:29.303Z,102542.19
2023-04-18T04:17:32.781Z,102554.38
2023-04-18T04:22:37.006Z,102544.47
2023-04-18T04:27:40.316Z,102548.31
2023-04-18T04:32:44.991Z,102548.13
2023-04-18T04:37:48.526Z,102561.75
2023-04-18T04:43:01.698Z,102561.84
2023-04-18T04:48:11.555Z,102562.16
2023-04-18T04:53:14.305Z,102566.81
2023-04-18T04:58:17.666Z,102564.53
2023-04-18T05:03:39.052Z,102556.00
2023-04-18T05:08:42.029Z,102545.75
2023-04-18T05:13:45.050Z,102558.63
2023-04-18T05:18:47.752Z,102551.41
2023-04-18T05:23:50.404Z,102553.78
2023-04-18T05:28:53.679Z,102548.31
2023-04-18T05:33:56.298Z,102555.03
2023-04-18T05:39:00.120Z,102560.91
2023-04-18T05:44:05.680Z,102554.31
2023-04-18T05:49:09.147Z,102557.72
2023-04-18T05:54:12.714Z,102551.72
2023-04-18T05:59:15.995Z,102550.00
2023-04-18T06:04:20.190Z,102553.56
2023-04-18T06:09:23.483Z,102542.59
2023-04-18T06:14:26.371Z,102550.56
2023-04-18T06:19:29.262Z,102553.75
2023-04-18T06:24:31.933Z,102560.88
2023-04-18T06:29:36.029Z,102554.75
2023-04-18T06:34:40.807Z,102550.16
2023-04-18T06:39:43.597Z,102542.59
2023-04-18T06:44:46.272Z,102538.91
2023-04-18T06:49:48.828Z,102537.41
2023-04-18T06:54:51.480Z,102530.91
2023-04-18T06:59:54.228Z,102527.75
2023-04-18T07:04:57.391Z,102527.09
2023-04-18T07:10:00.594Z,102529.19
2023-04-18T07:15:04.200Z,102527.19
2023-04-18T07:20:08.653Z,102529.28
2023-04-18T07:25:11.855Z,102524.88
2023-04-18T07:30:14.693Z,102514.03
2023-04-18T07:35:17.405Z,102509.56
2023-04-18T07:40:20.740Z,102491.91
2023-04-18T07:45:23.796Z,102506.09
2023-04-18T07:50:27.172Z,102492.66
2023-04-18T07:55:30.924Z,102486.44
2023-04-18T08:00:33.646Z,102493.84
2023-04-18T08:05:36.474Z,102473.19
2023-04-18T08:10:39.683Z,102466.69
2023-04-18T08:15:42.909Z,102464.63
2023-04-18T08:20:48.656Z,102461.88
2023-04-18T08:25:51.271Z,102453.91
2023-04-18T08:30:55.469Z,102444.00
2023-04-18T08:35:58.170Z,102438.28
2023-04-18T08:41:01.104Z,102427.91
2023-04-18T08:46:03.971Z,102425.22
2023-04-18T08:51:06.640Z,102419.09
2023-04-18T08:56:11.001Z,102405.84
2023-04-18T09:01:13.971Z,102425.47
2023-04-18T09:06:19.504Z,102415.34
2023-04-18T09:11:29.146Z,102424.47
2023-04-18T09:16:45.284Z,102403.03
2023-04-18T09:21:58.829Z,102399.84
2023-04-18T09:27:01.750Z,102419.56
2023-04-18T09:32:06.031Z,102400.22
2023-04-18T09:37:16.028Z,102388.75
2023-04-18T09:42:19.638Z,102392.06
2023-04-18T09:47:22.438Z,102391.78
2023-04-18T09:52:28.590Z,102382.50
2023-04-18T09:57:33.114Z,102377.09
2023-04-18T10:03:10.110Z,102372.94
2023-04-18T10:08:14.417Z,102377.25
2023-04-18T10:13:19.178Z,102368.25
2023-04-18T10:18:25.246Z,102362.63
2023-04-18T10:23:43.881Z,102363.50
2023-04-18T10:28:59.803Z,102363.59
2023-04-18T10:34:07.368Z,102350.19
2023-04-18T10:39:30.383Z,102348.94
2023-04-18T10:44:33.123Z,102354.22
2023-04-18T10:49:38.916Z,102327.09
2023-04-18T10:54:52.623Z,102339.22
2023-04-18T10:59:56.773Z,102337.47
2023-04-18T11:05:01.900Z,102333.59
2023-04-18T11:10:08.829Z,102322.00
2023-04-18T11:15:18.173Z,102306.53
2023-04-18T11:20:23.465Z,102312.63
2023-04-18T11:25:32.235Z,102310.97
2023-04-18T11:30:39.853Z,102303.56
2023-04-18T11:35:46.731Z,102291.41
2023-04-18T11:40:51.317Z,102288.13
2023-04-18T11:45:56.569Z,102285.06
2023-04-18T11:50:59.493Z,102267.16
2023-04-18T11:56:04.026Z,102261.00
2023-04-18T12:01:21.285Z,102264.47
2023-04-18T12:06:24.146Z,102256.16
2023-04-18T12:11:27.147Z,102260.78
2023-04-18T12:16:31.139Z,102246.03
2023-04-18T12:21:33.785Z,102259.88
2023-04-18T12:26:46.517Z,102234.19
2023-04-18T12:31:49.367Z,102239.06
2023-04-18T12:36:52.686Z,102246.81
2023-04-18T12:41:55.577Z,102239.50
2023-04-18T12:47:01.143Z,102237.03
2023-04-18T12:52:09.064Z,102232.03
2023-04-18T12:57:11.845Z,102231.50
2023-04-18T13:02:14.957Z,102230.78
2023-04-18T13:07:19.168Z,102212.38
2023-04-18T13:12:22.808Z,102210.78
2023-04-18T13:17:27.116Z,102196.19
2023-04-18T13:22:31.263Z,102192.56
2023-04-18T13:27:35.465Z,102198.63
2023-04-18T13:32:41.469Z,102204.81
2023-04-18T13:37:46.543Z,102207.28
2023-04-18T13:42:50.703Z,102190.22
2023-04-18T13:47:53.995Z,102178.34
2023-04-18T13:52:56.824Z,102180.41
2023-04-18T13:58:00.197Z,102177.06
2023-04-18T14:03:03.328Z,102174.81
2023-04-18T14:08:06.992Z,102164.38
2023-04-18T14:13:10.778Z,102187.44
2023-04-18T14:18:13.897Z,102158.56
2023-04-18T14:23:16.649Z,102158.25
2023-04-18T14:28:22.970Z,102150.06
2023-04-18T14:33:28.621Z,102152.44
2023-04-18T14:38:31.522Z,102149.53
2023-04-18T14:43:34.389Z,102138.09
2023-04-18T14:48:37.235Z,102144.34
2023-04-18T14:53:40.059Z,102130.03
2023-04-18T14:58:44.074Z,102125.75
2023-04-18T15:03:47.252Z,102129.69
2023-04-18T15:08:50.267Z,102119.72
2023-04-18T15:13:56.206Z,102111.25
2023-04-18T15:19:00.727Z,102109.28
2023-04-18T15:24:05.112Z,102112.22
2023-04-18T15:29:08.306Z,102114.06
2023-04-18T15:34:12.542Z,102106.75
2023-04-18T15:39:18.389Z,102110.09
2023-04-18T15:44:22.316Z,102106.69
2023-04-18T15:49:25.506Z,102105.59
2023-04-18T15:54:28.265Z,102102.47
2023-04-18T15:59:31.420Z,102108.09
2023-04-18T16:04:34.252Z,102096.69
2023-04-18T16:09:37.976Z,102104.84
2023-04-18T16:14:41.125Z,102112.63
2023-04-18T16:19:44.193Z,102117.03
2023-04-18T16:24:48.338Z,102121.66
2023-04-18T16:29:51.301Z,102114.13
2023-04-18T16:34:54.939Z,102106.75
2023-04-18T16:39:58.088Z,102100.19
2023-04-18T16:45:02.144Z,102100.34
2023-04-18T16:50:08.408Z,102096.09
2023-04-18T16:55:11.482Z,102103.13
2023-04-18T17:00:14.918Z,102102.94
2023-04-18T17:05:18.969Z,102098.59
2023-04-18T17:10:22.746Z,102103.53
2023-04-18T17:15:26.539Z,102107.44
2023-04-18T17:20:29.436Z,102109.50
2023-04-18T17:25:32.453Z,102108.66
2023-04-18T17:30:35.440Z,102114.06
2023-04-18T17:35:44.413Z,102110.34
2023-04-18T17:40:47.241Z,102109.84
2023-04-18T17:45:50.012Z,102119.91
2023-04-18T17:50:53.062Z,102123.44
2023-04-18T17:55:59.370Z,102125.63
2023-04-18T18:01:02.182Z,102135.56
2023-04-18T18:06:05.299Z,102139.09
2023-04-18T18:11:08.252Z,102146.47
2023-04-18T18:16:11.217Z,102153.00
2023-04-18T18:21:16.734Z,102148.25
2023-04-18T18:26:19.442Z,102161.19
2023-04-18T18:31:25.102Z,102157.63
2023-04-18T18:36:28.819Z,102141.47
2023-04-18T18:41:32.270Z,102144.81
2023-04-18T18:46:35.711Z,102138.56
2023-04-18T18:51:38.605Z,102139.88
2023-04-18T18:56:42.981Z,102141.50
2023-04-18T19:01:47.274Z,102138.75
2023-04-18T19:06:50.128Z,102129.00
2023-04-18T19:11:52.938Z,102138.38
2023-04-18T19:16:58.068Z,102136.09
2023-04-18T19:22:26.169Z,102135.88
2023-04-18T19:27:28.920Z,102129.41
2023-04-18T19:32:32.799Z,102129.06
2023-04-18T19:37:36.249Z,102128.34
2023-04-18T19:42:39.181Z,102127.09
2023-04-18T19:47:44.548Z,102125.81
2023-04-18T19:52:47.518Z,102122.09
2023-04-18T19:57:56.838Z,102119.88
2023-04-18T20:02:59.499Z,102123.72
2023-04-18T20:08:02.347Z,102126.00
2023-04-18T20:13:33.177Z,102109.53
2023-04-18T20:18:41.730Z,102105.75
2023-04-18T20:23:45.569Z,102105.09
2023-04-18T20:29:24.688Z,102106.84
2023-04-18T20:34:27.460Z,102108.22
2023-04-18T20:39:48.751Z,102095.72
2023-04-18T20:44:55.043Z,102101.72
2023-04-18T20:50:34.817Z,102109.28
2023-04-18T20:55:56.497Z,102100.75
2023-04-18T21:00:59.369Z,102092.22
2023-04-18T21:06:22.242Z,102094.56
2023-04-18T21:11:25.312Z,102083.03
2023-04-18T21:16:28.169Z,102084.91
2023-04-18T21:21:31.856Z,102063.59
2023-04-18T21:26:34.828Z,102073.28
2023-04-18T21:31:37.730Z,102077.38
